Time;durP1;ratioP1;P1;durP2;ratioP2;P2;SDS_P1;SDS_P2;PMS_P1;PMS_P2;Temp;Humidity;BMP_temperature;BMP_pressure;BME280_temperature;BME280_humidity;BME280_pressure;Samples;Min_cycle;Max_cycle;Signal;HPM_P1;HPM_P2
2022/06/19 00:01:12;;;;;;;4.03;2.78;;;;;;;21.75;100.00;100565.28;5033510;28;20227;-69
2022/06/19 00:03:44;;;;;;;5.15;2.70;;;;;;;21.88;100.00;100565.84;5033654;28;20258;-69
2022/06/19 00:06:10;;;;;;;3.28;2.75;;;;;;;21.47;100.00;100529.84;5032861;28;20585;-69
2022/06/19 00:08:38;;;;;;;3.60;2.95;;;;;;;21.52;100.00;100530.59;5033788;28;20200;-69
2022/06/19 00:11:07;;;;;;;3.13;2.80;;;;;;;21.70;100.00;100574.19;5033471;28;20204;-69
2022/06/19 00:13:34;;;;;;;4.10;3.20;;;;;;;21.55;100.00;100569.25;5033645;28;20240;-69
2022/06/19 00:16:01;;;;;;;4.20;3.15;;;;;;;21.44;100.00;100544.88;4997581;28;20211;-69
2022/06/19 00:18:27;;;;;;;3.95;3.65;;;;;;;21.51;100.00;100567.59;5031391;28;20731;-69
2022/06/19 00:20:56;;;;;;;4.78;3.42;;;;;;;21.62;100.00;100558.53;5031902;28;20204;-70
2022/06/19 00:23:22;;;;;;;4.75;3.50;;;;;;;21.50;100.00;100564.09;5032344;28;20207;-69
2022/06/19 00:25:49;;;;;;;4.50;3.47;;;;;;;21.39;100.00;100546.75;5031976;28;20196;-69
2022/06/19 00:28:16;;;;;;;4.53;3.70;;;;;;;21.37;100.00;100556.47;5032303;28;20568;-69
2022/06/19 00:30:43;;;;;;;6.95;4.38;;;;;;;21.30;100.00;100547.81;5032099;28;20208;-69
2022/06/19 00:33:10;;;;;;;4.70;3.80;;;;;;;21.43;100.00;100558.97;5032412;28;20204;-69
2022/06/19 00:35:37;;;;;;;5.05;4.53;;;;;;;21.39;100.00;100552.91;5032394;28;20203;-69
2022/06/19 00:38:05;;;;;;;7.63;3.47;;;;;;;21.45;100.00;100554.53;5032287;28;20214;-69
2022/06/19 00:40:32;;;;;;;3.80;3.50;;;;;;;20.96;100.00;100526.50;5032328;28;20210;-69
2022/06/19 00:42:59;;;;;;;7.05;3.85;;;;;;;20.83;100.00;100551.41;5031806;28;20220;-69
2022/06/19 00:45:36;;;;;;;4.97;4.10;;;;;;;21.14;100.00;100552.53;5032101;28;20204;-69
2022/06/19 00:48:09;;;;;;;4.30;3.90;;;;;;;20.89;100.00;100530.19;5031975;28;20196;-69
2022/06/19 00:50:37;;;;;;;7.47;3.92;;;;;;;20.86;100.00;100551.34;5032149;28;20250;-69
2022/06/19 00:53:09;;;;;;;5.53;3.85;;;;;;;20.84;100.00;100547.84;5013301;28;20200;-69
2022/06/19 00:55:41;;;;;;;5.97;3.97;;;;;;;20.58;100.00;100521.97;5031616;28;20215;-69
2022/06/19 00:58:19;;;;;;;5.35;3.13;;;;;;;20.62;100.00;100541.22;5018724;28;20204;-69
2022/06/19 01:00:48;;;;;;;5.55;4.07;;;;;;;20.61;100.00;100545.66;5012256;28;20611;-69
2022/06/19 01:03:18;;;;;;;4.15;3.75;;;;;;;20.53;100.00;100530.88;5011914;28;20659;-69
2022/06/19 01:05:48;;;;;;;4.32;3.60;;;;;;;20.67;100.00;100556.06;5027411;28;20234;-69
2022/06/19 01:08:16;;;;;;;4.03;3.60;;;;;;;20.58;100.00;100556.22;5031090;28;20203;-69
2022/06/19 01:10:46;;;;;;;5.35;3.95;;;;;;;20.51;100.00;100546.69;5031684;28;20208;-69
2022/06/19 01:15:56;;;;;;;4.70;4.25;;;;;;;20.75;100.00;100569.13;5088458;27;20546;-69
2022/06/19 01:18:24;;;;;;;6.50;3.63;;;;;;;20.61;100.00;100561.47;5088113;28;20198;-69
2022/06/19 01:20:57;;;;;;;4.13;3.60;;;;;;;20.79;100.00;100570.81;5088444;28;20190;-69
2022/06/19 01:23:33;;;;;;;4.32;3.92;;;;;;;20.73;100.00;100555.94;5088303;28;20743;-69
2022/06/19 01:26:01;;;;;;;5.38;3.70;;;;;;;20.77;100.00;100573.44;5088266;28;20209;-69
2022/06/19 01:28:46;;;;;;;4.15;3.75;;;;;;;20.78;100.00;100569.94;5087507;28;20614;-69
2022/06/19 01:31:16;;;;;;;4.70;3.58;;;;;;;20.52;100.00;100518.59;5088282;28;20205;-69
2022/06/19 01:33:47;;;;;;;5.72;3.97;;;;;;;20.80;100.00;100563.75;5064007;28;20213;-69
2022/06/19 01:36:18;;;;;;;4.40;3.85;;;;;;;20.75;100.00;100564.72;5088396;28;20198;-69
2022/06/19 01:38:49;;;;;;;4.28;3.88;;;;;;;20.79;100.00;100554.97;5088046;28;20202;-69
2022/06/19 01:41:22;;;;;;;3.83;3.53;;;;;;;20.80;100.00;100571.66;5088254;28;20204;-69
2022/06/19 01:43:49;;;;;;;4.38;3.80;;;;;;;20.67;100.00;100573.66;5087858;28;20202;-69
2022/06/19 01:46:18;;;;;;;3.67;3.38;;;;;;;20.52;100.00;100545.81;5087712;28;20197;-69
2022/06/19 01:48:46;;;;;;;4.00;3.70;;;;;;;20.69;100.00;100579.78;5087792;28;20198;-70
2022/06/19 01:51:14;;;;;;;7.15;4.32;;;;;;;20.69;100.00;100590.31;5087590;28;20198;-69
2022/06/19 01:53:44;;;;;;;4.28;3.97;;;;;;;20.75;100.00;100579.66;5087781;28;20655;-70
2022/06/19 01:56:13;;;;;;;8.60;4.07;;;;;;;20.64;100.00;100582.50;5087576;28;20691;-69
2022/06/19 01:58:44;;;;;;;5.05;4.10;;;;;;;20.67;100.00;100577.16;5087492;28;20210;-69
2022/06/19 02:01:11;;;;;;;7.30;3.85;;;;;;;20.54;100.00;100566.88;5086793;28;20205;-69
2022/06/19 02:03:43;;;;;;;7.53;3.90;;;;;;;20.67;100.00;100581.56;5087586;28;20205;-70
2022/06/19 02:06:13;;;;;;;5.78;4.20;;;;;;;20.63;100.00;100590.41;5087510;28;20206;-70
2022/06/19 02:08:41;;;;;;;5.03;4.30;;;;;;;20.60;100.00;100590.47;5087027;28;20213;-70
2022/06/19 02:11:11;;;;;;;5.15;4.10;;;;;;;20.52;100.00;100585.34;5049107;28;20214;-69
2022/06/19 02:13:40;;;;;;;4.45;4.00;;;;;;;20.48;100.00;100590.66;5052158;28;20285;-69
2022/06/19 02:16:11;;;;;;;4.80;4.22;;;;;;;20.56;100.00;100600.19;5087380;28;20225;-69
2022/06/19 02:18:40;;;;;;;7.38;4.40;;;;;;;20.37;100.00;100567.16;5087256;28;20205;-69
2022/06/19 02:21:08;;;;;;;4.45;4.10;;;;;;;20.46;100.00;100598.63;5087340;28;20198;-69
2022/06/19 02:23:37;;;;;;;6.95;4.28;;;;;;;20.46;100.00;100595.09;5086895;28;20202;-69
2022/06/19 02:26:07;;;;;;;4.50;4.20;;;;;;;20.42;100.00;100596.06;5080214;28;20227;-69
2022/06/19 02:28:37;;;;;;;10.02;3.88;;;;;;;20.27;100.00;100583.97;5073259;28;20607;-69
2022/06/19 02:31:06;;;;;;;3.83;3.42;;;;;;;20.17;100.00;100596.44;5073473;28;20207;-69
2022/06/19 02:33:41;;;;;;;3.58;3.28;;;;;;;20.13;100.00;100592.09;5073655;28;20252;-69
2022/06/19 02:36:36;;;;;;;3.50;2.90;;;;;;;20.21;100.00;100594.63;5073536;28;20213;-69
2022/06/19 02:39:15;;;;;;;4.45;3.25;;;;;;;20.03;100.00;100585.25;5023541;28;20192;-69
2022/06/19 02:41:49;;;;;;;5.10;3.70;;;;;;;20.12;100.00;100602.69;5031228;28;20214;-69
2022/06/19 02:44:16;;;;;;;4.00;3.70;;;;;;;19.92;100.00;100597.69;5030880;28;20247;-69
2022/06/19 02:46:43;;;;;;;5.63;3.83;;;;;;;19.93;100.00;100586.28;5030315;28;20192;-69
2022/06/19 02:49:11;;;;;;;5.72;4.40;;;;;;;20.21;100.00;100606.03;5030918;28;20197;-69
2022/06/19 02:51:38;;;;;;;9.70;4.75;;;;;;;20.10;100.00;100584.25;5031117;28;20208;-69
2022/06/19 02:54:05;;;;;;;4.97;4.57;;;;;;;19.86;100.00;100532.00;5030939;28;20251;-70
2022/06/19 02:56:32;;;;;;;6.38;4.53;;;;;;;20.19;100.00;100584.09;5031013;28;20193;-69
2022/06/19 02:58:58;;;;;;;6.25;3.80;;;;;;;20.25;100.00;100589.28;5030258;28;20325;-69
2022/06/19 03:01:26;;;;;;;7.72;5.28;;;;;;;20.37;100.00;100614.56;5030194;28;20211;-69
2022/06/19 03:03:53;;;;;;;6.07;5.05;;;;;;;20.35;100.00;100605.81;5030600;28;20255;-69
2022/06/19 03:06:21;;;;;;;6.80;5.05;;;;;;;20.52;100.00;100609.03;5030395;28;20572;-69
2022/06/19 03:08:48;;;;;;;5.95;5.38;;;;;;;20.62;100.00;100615.00;5029974;28;20208;-69
2022/06/19 03:11:15;;;;;;;8.23;4.13;;;;;;;20.84;100.00;100605.84;5030076;28;20285;-69
2022/06/19 03:13:41;;;;;;;8.07;3.95;;;;;;;21.26;100.00;100614.72;5029940;28;20207;-69
2022/06/19 03:16:10;;;;;;;6.82;4.10;;;;;;;21.84;100.00;100611.72;5051818;28;20203;-69
2022/06/19 03:18:38;;;;;;;4.00;3.63;;;;;;;22.50;100.00;100618.97;5072587;28;20195;-69
2022/06/19 03:21:05;;;;;;;4.78;4.15;;;;;;;23.53;100.00;100629.44;5072145;28;20226;-70
2022/06/19 03:23:34;;;;;;;4.75;3.78;;;;;;;24.15;100.00;100620.44;5072561;28;20566;-69
2022/06/19 03:26:01;;;;;;;6.28;3.42;;;;;;;24.96;97.13;100641.66;5072348;28;20227;-70
2022/06/19 03:28:29;;;;;;;3.42;3.22;;;;;;;24.68;92.99;100610.72;5072338;28;20218;-70
2022/06/19 03:30:56;;;;;;;3.58;3.28;;;;;;;25.02;91.82;100631.69;5072167;28;20226;-70
2022/06/19 03:33:23;;;;;;;6.72;3.40;;;;;;;25.59;87.47;100638.47;5072539;28;20211;-70
2022/06/19 03:35:50;;;;;;;5.88;3.35;;;;;;;25.90;83.79;100601.81;5072248;28;20210;-70
2022/06/19 03:38:17;;;;;;;4.75;3.13;;;;;;;26.40;81.38;100622.84;5070704;28;20210;-70
2022/06/19 03:40:45;;;;;;;3.47;3.17;;;;;;;26.95;77.17;100646.25;5071193;28;20199;-69
2022/06/19 03:43:13;;;;;;;5.25;3.53;;;;;;;27.29;73.95;100624.28;5071533;28;20195;-70
2022/06/19 03:45:40;;;;;;;7.30;3.20;;;;;;;28.16;68.32;100630.94;5071022;28;20226;-73
2022/06/19 03:48:09;;;;;;;4.32;3.17;;;;;;;28.59;65.70;100651.91;5071552;28;20210;-72
2022/06/19 03:50:36;;;;;;;3.70;3.40;;;;;;;28.78;63.83;100623.38;5071531;28;20213;-73
2022/06/19 03:53:03;;;;;;;8.95;3.22;;;;;;;29.03;61.69;100650.53;5071387;28;20191;-73
2022/06/19 03:55:29;;;;;;;3.78;3.30;;;;;;;29.43;60.16;100635.09;5071780;28;20194;-69
2022/06/19 03:57:58;;;;;;;3.85;3.22;;;;;;;29.40;58.04;100565.75;5070882;28;20203;-68
2022/06/19 04:00:24;;;;;;;5.32;3.58;;;;;;;30.23;56.43;100648.47;5035415;28;20287;-69
2022/06/19 04:02:51;;;;;;;4.18;3.50;;;;;;;30.40;55.04;100643.00;5020516;28;20198;-68
2022/06/19 04:05:18;;;;;;;8.65;3.55;;;;;;;30.74;53.72;100648.16;5059299;28;20222;-69
2022/06/19 04:07:47;;;;;;;3.95;2.97;;;;;;;30.85;53.57;100658.22;5071752;28;20706;-69
2022/06/19 04:10:15;;;;;;;6.05;2.70;;;;;;;31.06;52.23;100661.44;5071442;28;20201;-66
2022/06/19 04:12:42;;;;;;;4.70;3.00;;;;;;;31.24;51.38;100665.69;5071321;28;20199;-67
2022/06/19 04:15:11;;;;;;;4.43;3.30;;;;;;;31.22;50.45;100646.16;5071015;28;20360;-68
2022/06/19 04:17:39;;;;;;;3.05;2.75;;;;;;;31.06;50.11;100629.31;5071721;28;20202;-70
2022/06/19 04:20:08;;;;;;;5.53;2.90;;;;;;;31.68;49.27;100669.19;5071199;28;20206;-68
2022/06/19 04:22:35;;;;;;;3.47;2.85;;;;;;;31.23;48.08;100653.25;5071270;28;20230;-71
2022/06/19 04:25:02;;;;;;;3.03;2.80;;;;;;;31.40;47.84;100650.38;5071136;28;20228;-70
2022/06/19 04:27:29;;;;;;;2.92;2.80;;;;;;;30.52;50.12;100673.56;5071610;28;20588;-70
2022/06/19 04:29:56;;;;;;;3.53;3.22;;;;;;;30.16;50.97;100674.69;5071415;28;20191;-70
2022/06/19 04:32:25;;;;;;;6.45;4.35;;;;;;;30.23;52.17;100684.09;5071017;28;20693;-70
2022/06/19 04:34:51;;;;;;;4.13;3.80;;;;;;;30.07;53.08;100677.03;5070949;28;20205;-70
2022/06/19 04:37:18;;;;;;;4.47;3.55;;;;;;;30.24;52.30;100660.91;5071061;28;20646;-70
2022/06/19 04:39:45;;;;;;;4.95;3.47;;;;;;;30.48;51.94;100670.22;5071457;28;20202;-70
2022/06/19 04:42:12;;;;;;;5.55;4.28;;;;;;;30.43;52.58;100673.16;5070974;28;20205;-70
2022/06/19 04:44:38;;;;;;;5.00;3.75;;;;;;;30.73;51.92;100675.88;5070440;28;20658;-70
2022/06/19 04:47:06;;;;;;;4.93;3.95;;;;;;;31.41;50.31;100657.47;5071209;28;20207;-70
2022/06/19 04:49:34;;;;;;;7.05;3.63;;;;;;;31.83;48.74;100670.91;5071329;28;20195;-71
2022/06/19 04:52:01;;;;;;;3.35;2.88;;;;;;;31.57;49.35;100678.88;5035896;28;20207;-70
2022/06/19 04:54:27;;;;;;;5.35;3.90;;;;;;;31.54;48.75;100679.03;5071057;28;20646;-70
2022/06/19 04:56:54;;;;;;;4.15;3.80;;;;;;;30.98;50.49;100675.31;5070826;28;20209;-70
2022/06/19 04:59:21;;;;;;;4.40;4.00;;;;;;;31.04;49.94;100671.41;5070722;28;20239;-70
2022/06/19 05:01:48;;;;;;;4.40;4.00;;;;;;;31.30;49.31;100666.19;5071043;28;20202;-71
2022/06/19 05:04:15;;;;;;;6.85;4.80;;;;;;;30.54;52.15;100675.22;5035199;28;20198;-70
2022/06/19 05:06:43;;;;;;;4.72;4.28;;;;;;;30.45;52.55;100667.72;5070591;28;20615;-70
2022/06/19 05:09:10;;;;;;;4.72;4.22;;;;;;;30.42;53.23;100670.59;5069796;28;20205;-70
2022/06/19 05:11:36;;;;;;;6.07;4.80;;;;;;;30.78;52.96;100662.22;5070795;28;20193;-70
2022/06/19 05:14:04;;;;;;;5.45;4.55;;;;;;;31.00;50.72;100683.25;5069871;28;20233;-70
2022/06/19 05:16:32;;;;;;;6.72;4.88;;;;;;;31.36;50.62;100679.19;5070595;28;20194;-70
2022/06/19 05:19:00;;;;;;;4.50;4.10;;;;;;;31.03;50.18;100688.44;5070889;28;20654;-70
2022/06/19 05:21:27;;;;;;;4.93;4.30;;;;;;;30.58;52.11;100690.16;5070831;28;20206;-70
2022/06/19 05:23:56;;;;;;;4.65;4.30;;;;;;;31.06;51.75;100682.88;5070488;28;20548;-70
2022/06/19 05:26:25;;;;;;;4.97;4.50;;;;;;;30.01;52.97;100655.03;5070570;28;20240;-70
2022/06/19 05:28:54;;;;;;;4.70;4.07;;;;;;;30.49;51.56;100680.84;5064307;28;20285;-70
2022/06/19 05:31:20;;;;;;;8.75;4.07;;;;;;;30.92;49.44;100694.41;5070217;28;20202;-70
2022/06/19 05:33:47;;;;;;;5.22;4.40;;;;;;;31.52;47.69;100668.44;5032889;28;20194;-71
2022/06/19 05:36:16;;;;;;;6.50;4.60;;;;;;;31.96;47.08;100681.72;5056480;28;20190;-71
2022/06/19 05:38:43;;;;;;;7.22;3.65;;;;;;;31.67;47.32;100680.88;5070528;28;20289;-71
2022/06/19 05:41:12;;;;;;;4.68;4.28;;;;;;;32.08;46.74;100674.72;5067693;28;20649;-70
2022/06/19 05:43:39;;;;;;;5.82;4.65;;;;;;;32.10;45.88;100684.41;5048001;28;20666;-70
2022/06/19 05:46:08;;;;;;;4.18;3.72;;;;;;;32.05;45.17;100674.88;5069996;28;20230;-70
2022/06/19 05:48:36;;;;;;;5.28;3.92;;;;;;;31.95;45.03;100680.84;5059154;28;20202;-70
2022/06/19 05:51:05;;;;;;;7.75;4.00;;;;;;;31.91;45.44;100682.00;5065542;28;20244;-70
2022/06/19 05:53:34;;;;;;;7.28;4.03;;;;;;;32.10;45.81;100678.19;5054177;28;20252;-69
2022/06/19 05:56:01;;;;;;;5.13;4.30;;;;;;;32.16;46.55;100677.78;5066887;28;20209;-70
2022/06/19 05:58:29;;;;;;;3.97;3.78;;;;;;;32.51;44.63;100684.38;5066301;28;20209;-70
2022/06/19 06:00:56;;;;;;;4.50;3.72;;;;;;;31.20;46.02;100640.03;5056254;28;20211;-69
2022/06/19 06:03:24;;;;;;;4.50;3.70;;;;;;;31.30;46.23;100676.03;5066389;28;20210;-69
2022/06/19 06:05:52;;;;;;;4.10;3.80;;;;;;;30.98;46.08;100665.47;5034804;28;20248;-70
2022/06/19 06:08:20;;;;;;;3.90;3.50;;;;;;;30.50;47.67;100679.03;5069672;28;20210;-70
2022/06/19 06:10:48;;;;;;;3.80;3.50;;;;;;;29.92;48.83;100650.19;5069827;28;20685;-69
2022/06/19 06:13:15;;;;;;;4.05;3.75;;;;;;;29.80;49.01;100666.88;5070407;28;20198;-68
2022/06/19 06:15:45;;;;;;;6.63;4.10;;;;;;;30.06;48.47;100667.28;5070024;28;20257;-70
2022/06/19 06:18:12;;;;;;;81.60;52.67;;;;;;;30.14;49.41;100662.38;5069273;28;20316;-70
2022/06/19 06:20:39;;;;;;;6.20;4.82;;;;;;;30.34;49.17;100670.13;5033358;28;20206;-70
2022/06/19 06:23:06;;;;;;;3.90;3.50;;;;;;;29.85;50.19;100659.50;5069993;28;20589;-71
2022/06/19 06:25:33;;;;;;;4.18;3.88;;;;;;;28.29;53.80;100664.09;5034352;28;20234;-70
2022/06/19 06:27:59;;;;;;;4.43;3.60;;;;;;;28.47;54.86;100668.50;5070039;28;20202;-71
2022/06/19 06:30:26;;;;;;;5.30;4.28;;;;;;;28.78;56.19;100674.09;5069961;28;20205;-70
2022/06/19 06:32:54;;;;;;;4.38;3.78;;;;;;;28.55;58.09;100661.00;5069855;28;20214;-70
2022/06/19 06:35:21;;;;;;;4.28;3.88;;;;;;;28.10;60.30;100669.44;5069717;28;20218;-69
2022/06/19 06:37:48;;;;;;;8.05;3.95;;;;;;;27.35;65.92;100663.13;5068996;28;20206;-69
2022/06/19 06:40:15;;;;;;;4.25;3.95;;;;;;;27.16;68.47;100664.88;5033987;28;20207;-69
2022/06/19 06:42:45;;;;;;;4.07;3.78;;;;;;;27.38;66.05;100668.31;5069291;28;20214;-69
2022/06/19 06:45:14;;;;;;;3.83;3.53;;;;;;;27.30;67.72;100665.13;5069774;28;20203;-69
2022/06/19 06:47:40;;;;;;;4.30;4.00;;;;;;;26.77;67.18;100668.28;5049642;28;20203;-70
2022/06/19 06:50:10;;;;;;;4.93;3.75;;;;;;;26.78;66.72;100655.84;5061829;28;20212;-68
2022/06/19 06:52:36;;;;;;;3.97;3.67;;;;;;;26.72;69.53;100664.94;5043619;28;20204;-68
2022/06/19 06:55:04;;;;;;;4.03;3.72;;;;;;;26.52;67.04;100652.47;5032375;28;20217;-69
2022/06/19 06:57:30;;;;;;;5.90;3.65;;;;;;;26.52;64.40;100644.50;5033386;28;20225;-69
2022/06/19 06:59:57;;;;;;;5.00;3.30;;;;;;;26.75;64.02;100662.19;5068895;28;20670;-68
2022/06/19 07:02:24;;;;;;;6.47;3.92;;;;;;;26.30;68.81;100658.72;5069162;28;20214;-68
2022/06/19 07:04:51;;;;;;;4.07;3.72;;;;;;;25.99;68.15;100649.28;5067698;28;20209;-69
2022/06/19 07:07:19;;;;;;;3.80;3.50;;;;;;;26.15;70.17;100660.16;5068984;28;20238;-69
2022/06/19 07:09:46;;;;;;;3.83;3.60;;;;;;;26.03;73.16;100653.56;5068929;28;20218;-68
2022/06/19 07:12:13;;;;;;;4.57;3.85;;;;;;;25.59;73.99;100596.84;5068898;28;20221;-69
2022/06/19 07:14:41;;;;;;;4.13;3.83;;;;;;;26.46;74.84;100660.72;5068898;28;20234;-68
2022/06/19 07:17:07;;;;;;;4.13;3.72;;;;;;;26.09;76.61;100655.97;5055325;28;20213;-68
2022/06/19 07:19:34;;;;;;;3.65;3.33;;;;;;;26.18;72.28;100648.59;5068833;28;20215;-69
2022/06/19 07:22:01;;;;;;;5.20;4.10;;;;;;;26.26;74.69;100651.78;5068493;28;20203;-69
2022/06/19 07:24:29;;;;;;;4.38;3.65;;;;;;;26.35;69.72;100640.81;5069180;28;20210;-68
2022/06/19 07:26:56;;;;;;;3.83;3.50;;;;;;;26.69;71.81;100649.09;5068675;28;20231;-68
2022/06/19 07:29:23;;;;;;;6.00;3.30;;;;;;;26.90;69.92;100655.34;5068279;28;20234;-68
2022/06/19 07:31:50;;;;;;;3.92;3.55;;;;;;;26.63;62.14;100617.44;5033049;28;20222;-70
2022/06/19 07:34:16;;;;;;;3.78;3.47;;;;;;;26.80;66.98;100638.00;5068688;28;20210;-69
2022/06/19 07:36:44;;;;;;;3.40;3.20;;;;;;;26.78;67.22;100662.03;5068508;28;20210;-69
2022/06/19 07:39:10;;;;;;;4.00;3.20;;;;;;;27.09;62.57;100658.94;5068387;28;20272;-69
2022/06/19 07:41:39;;;;;;;3.35;3.03;;;;;;;27.21;61.67;100649.56;5068551;28;20205;-70
2022/06/19 07:44:05;;;;;;;3.55;3.25;;;;;;;27.10;62.84;100658.88;5068359;28;20203;-68
2022/06/19 07:46:32;;;;;;;4.88;3.80;;;;;;;27.28;60.69;100645.69;5068566;28;21181;-69
2022/06/19 07:51:43;;;;;;;6.07;4.45;;;;;;;27.27;56.36;100642.16;5068115;28;20213;-70
2022/06/19 07:54:10;;;;;;;3.15;2.88;;;;;;;27.52;57.18;100644.59;5067579;28;20217;-69
2022/06/19 07:56:37;;;;;;;3.15;2.85;;;;;;;27.74;56.12;100645.34;5067275;28;20210;-70
2022/06/19 07:59:05;;;;;;;4.00;2.78;;;;;;;27.79;54.99;100645.16;5067948;28;20198;-70
2022/06/19 08:01:32;;;;;;;3.22;3.03;;;;;;;27.92;54.84;100644.50;5068169;28;20214;-70
2022/06/19 08:03:59;;;;;;;3.28;3.08;;;;;;;27.56;54.07;100636.41;5067687;28;20203;-70
2022/06/19 08:06:25;;;;;;;7.43;3.08;;;;;;;27.54;55.81;100632.06;5068000;28;20230;-69
2022/06/19 08:08:52;;;;;;;3.13;2.83;;;;;;;27.96;56.57;100634.53;5027503;28;20199;-70
2022/06/19 08:11:19;;;;;;;3.58;3.25;;;;;;;27.92;56.51;100631.16;5067566;28;20206;-69
2022/06/19 08:13:46;;;;;;;6.63;3.70;;;;;;;27.84;55.91;100620.00;5067739;28;20218;-70
2022/06/19 08:16:14;;;;;;;6.40;4.55;;;;;;;28.25;56.00;100643.84;5067938;28;20976;-70
2022/06/19 08:18:41;;;;;;;3.33;3.03;;;;;;;27.71;54.40;100634.84;5067600;28;20214;-70
2022/06/19 08:21:10;;;;;;;3.42;2.90;;;;;;;27.80;54.04;100629.06;5067929;28;20207;-70
2022/06/19 08:23:37;;;;;;;3.45;3.22;;;;;;;27.90;54.08;100635.69;5032089;28;20199;-70
2022/06/19 08:26:04;;;;;;;3.28;3.08;;;;;;;27.91;53.36;100633.88;5031985;28;20231;-70
2022/06/19 08:28:34;;;;;;;3.85;3.13;;;;;;;27.97;54.01;100628.25;5067091;28;20207;-71
2022/06/19 08:31:02;;;;;;;5.88;3.20;;;;;;;28.11;52.66;100638.31;5067466;28;20230;-69
2022/06/19 08:33:30;;;;;;;2.78;2.65;;;;;;;28.33;52.18;100622.97;5067017;28;20290;-70
2022/06/19 08:36:00;;;;;;;2.55;2.35;;;;;;;28.29;51.49;100632.09;5067518;28;20211;-69
2022/06/19 08:38:32;;;;;;;3.45;2.47;;;;;;;28.36;49.74;100620.19;5060794;28;20206;-71
2022/06/19 08:41:43;;;;;;;2.80;2.60;;;;;;;28.52;51.37;100611.31;5031559;28;20199;-71
2022/06/19 08:44:54;;;;;;;4.50;2.80;;;;;;;28.87;50.83;100612.19;5030088;28;20667;-70
2022/06/19 08:47:37;;;;;;;3.40;2.60;;;;;;;28.86;50.25;100623.81;4961923;28;20240;-70
2022/06/19 08:50:15;;;;;;;2.20;2.10;;;;;;;29.08;46.10;100604.88;4920638;28;20265;-69
2022/06/19 08:53:00;;;;;;;2.50;2.30;;;;;;;29.39;47.30;100599.66;4915913;28;20632;-69
2022/06/19 08:55:35;;;;;;;2.67;2.47;;;;;;;28.95;48.18;100603.78;4966128;28;20217;-68
2022/06/19 08:58:11;;;;;;;4.25;2.40;;;;;;;29.15;48.08;100594.72;4965404;28;20218;-72
2022/06/19 09:00:49;;;;;;;2.40;2.30;;;;;;;29.33;44.70;100607.13;4966017;28;20209;-69
2022/06/19 09:03:26;;;;;;;5.43;2.90;;;;;;;29.51;44.49;100603.44;4965357;28;20210;-69
2022/06/19 09:06:01;;;;;;;4.20;2.50;;;;;;;29.60;44.29;100602.97;4961383;28;21106;-71
2022/06/19 09:08:55;;;;;;;2.60;2.47;;;;;;;29.33;45.34;100596.44;4965390;28;20233;-71
2022/06/19 09:11:54;;;;;;;2.83;2.35;;;;;;;29.57;44.05;100600.47;4963801;28;20210;-69
2022/06/19 09:14:35;;;;;;;8.77;2.40;;;;;;;29.01;44.74;100600.78;4954038;28;20738;-75
2022/06/19 09:17:10;;;;;;;3.25;2.60;;;;;;;28.87;45.76;100582.84;4960966;28;20214;-70
2022/06/19 09:19:52;;;;;;;7.22;2.70;;;;;;;29.39;44.98;100588.09;4971361;28;20681;-71
2022/06/19 09:22:43;;;;;;;5.65;2.53;;;;;;;29.35;44.30;100589.22;4997921;28;20694;-71
2022/06/19 09:25:26;;;;;;;3.97;2.20;;;;;;;29.33;42.98;100585.75;5063348;28;20260;-75
2022/06/19 09:28:00;;;;;;;4.40;2.50;;;;;;;28.97;44.32;100593.88;5066686;28;20280;-68
2022/06/19 09:30:33;;;;;;;2.83;2.22;;;;;;;29.65;44.42;100578.63;5067036;28;20202;-69
2022/06/19 09:33:06;;;;;;;4.78;2.38;;;;;;;30.25;42.82;100585.03;5067064;28;20207;-70
2022/06/19 09:35:37;;;;;;;2.70;2.50;;;;;;;29.82;42.80;100583.91;5066625;28;20195;-71
2022/06/19 09:38:11;;;;;;;9.38;2.70;;;;;;;30.21;42.25;100575.44;5052049;28;20562;-71
2022/06/19 09:40:42;;;;;;;2.30;2.10;;;;;;;30.49;41.41;100565.75;5034581;28;20198;-70
2022/06/19 09:43:14;;;;;;;2.78;2.42;;;;;;;30.89;41.49;100579.41;5070570;28;20229;-71
2022/06/19 09:45:47;;;;;;;3.92;2.38;;;;;;;30.60;40.99;100578.50;5070740;28;20222;-70
2022/06/19 09:48:22;;;;;;;2.40;2.20;;;;;;;30.44;41.57;100550.88;5034564;28;20229;-71
2022/06/19 09:50:52;;;;;;;6.63;2.35;;;;;;;30.16;40.66;100588.22;5038289;28;20994;-70
2022/06/19 09:53:29;;;;;;;2.30;2.10;;;;;;;30.14;41.80;100563.38;5069282;28;20674;-70
2022/06/19 09:56:01;;;;;;;7.95;2.60;;;;;;;31.20;41.57;100576.59;5070401;28;20206;-70
2022/06/19 09:58:34;;;;;;;3.90;2.38;;;;;;;30.43;41.19;100570.56;5065156;28;20202;-71
2022/06/19 10:01:05;;;;;;;2.97;2.30;;;;;;;30.06;40.89;100562.97;5070467;28;20224;-71
2022/06/19 10:03:38;;;;;;;6.22;2.20;;;;;;;30.67;41.47;100555.75;5056077;28;20206;-69
2022/06/19 10:06:12;;;;;;;2.42;2.22;;;;;;;31.09;40.12;100570.16;5070402;28;20210;-69
2022/06/19 10:08:44;;;;;;;2.42;2.22;;;;;;;30.98;39.75;100506.53;5051656;28;20202;-70
2022/06/19 10:11:16;;;;;;;3.45;2.25;;;;;;;31.54;39.59;100564.59;5062492;28;20198;-69
2022/06/19 10:13:49;;;;;;;3.85;2.47;;;;;;;31.44;39.00;100560.75;5069625;28;20217;-69
2022/06/19 10:16:24;;;;;;;2.60;2.40;;;;;;;31.09;40.08;100554.94;5069923;28;20222;-69
2022/06/19 10:18:53;;;;;;;3.50;2.55;;;;;;;30.55;39.76;100505.59;5056207;28;20301;-68
2022/06/19 10:24:32;;;;;;;3.47;2.17;;;;;;;29.96;41.21;100549.25;5027094;28;20326;-69
2022/06/19 10:27:04;;;;;;;2.45;2.10;;;;;;;30.47;41.03;100540.00;4980238;28;20227;-69
2022/06/19 10:29:43;;;;;;;3.42;2.45;;;;;;;30.29;40.53;100549.09;5026729;28;20204;-69
2022/06/19 10:32:25;;;;;;;2.22;2.08;;;;;;;30.38;41.04;100540.53;5027232;28;20255;-70
2022/06/19 10:35:06;;;;;;;3.03;2.30;;;;;;;30.19;40.39;100540.75;5026561;28;20246;-69
2022/06/19 10:37:44;;;;;;;3.08;2.40;;;;;;;30.32;40.11;100538.22;5026591;28;20200;-70
2022/06/19 10:40:25;;;;;;;3.25;2.58;;;;;;;30.24;40.72;100538.69;5027054;28;20215;-68
2022/06/19 10:43:04;;;;;;;4.47;2.47;;;;;;;30.16;41.33;100540.06;5014649;28;20210;-72
2022/06/19 10:45:43;;;;;;;2.47;2.25;;;;;;;29.91;40.96;100541.50;5026486;28;20214;-70
2022/06/19 10:48:26;;;;;;;2.30;2.15;;;;;;;30.35;40.85;100535.34;5026194;28;20231;-73
2022/06/19 10:51:04;;;;;;;3.92;2.03;;;;;;;30.24;40.33;100535.13;5019777;28;20204;-72
2022/06/19 10:53:50;;;;;;;2.65;2.45;;;;;;;30.48;39.93;100531.03;4975855;28;20219;-71
2022/06/19 10:56:29;;;;;;;5.60;4.07;;;;;;;30.58;40.12;100537.53;5023010;28;20207;-69
2022/06/19 10:58:57;;;;;;;12.20;2.38;;;;;;;30.51;40.46;100530.84;5054056;28;20318;-69
2022/06/19 11:04:16;;;;;;;3.83;2.58;;;;;;;30.27;41.17;100537.63;5069467;28;20210;-69
2022/06/19 11:06:48;;;;;;;9.82;2.40;;;;;;;30.54;40.57;100525.28;5068903;28;20225;-69
2022/06/19 11:09:20;;;;;;;4.95;2.15;;;;;;;30.94;40.29;100527.25;5069015;28;20654;-70
2022/06/19 11:11:49;;;;;;;3.13;2.28;;;;;;;30.92;39.30;100531.00;5069091;28;20210;-69
2022/06/19 11:14:31;;;;;;;8.25;3.72;;;;;;;31.00;39.18;100507.28;5066526;28;20229;-69
2022/06/19 11:17:00;;;;;;;11.10;3.08;;;;;;;31.03;40.26;100527.69;5068800;28;20653;-70
2022/06/19 11:19:42;;;;;;;2.67;2.33;;;;;;;30.97;38.73;100503.00;5068883;28;20210;-68
2022/06/19 11:22:33;;;;;;;4.15;2.13;;;;;;;30.92;40.73;100504.22;5068728;28;20198;-69
2022/06/19 11:25:27;;;;;;;2.15;2.05;;;;;;;30.59;40.75;100528.56;5067853;28;20245;-70
2022/06/19 11:27:58;;;;;;;2.20;2.10;;;;;;;30.29;41.18;100525.00;5068470;28;20230;-69
2022/06/19 11:30:31;;;;;;;2.55;2.35;;;;;;;30.34;41.22;100513.09;5068627;28;20210;-70
2022/06/19 11:32:59;;;;;;;5.47;2.13;;;;;;;30.12;41.18;100503.72;5068715;28;20574;-70
2022/06/19 11:35:36;;;;;;;2.42;2.22;;;;;;;29.60;40.01;100514.75;5067838;28;20213;-69
2022/06/19 11:38:03;;;;;;;2.10;2.00;;;;;;;29.48;39.82;100499.41;5032251;28;20221;-70
2022/06/19 11:40:33;;;;;;;2.70;2.50;;;;;;;30.30;39.63;100510.66;5068559;28;20588;-69
2022/06/19 11:43:03;;;;;;;4.47;2.10;;;;;;;30.58;39.49;100507.22;5068500;28;20226;-68
2022/06/19 11:45:33;;;;;;;2.10;2.00;;;;;;;30.63;38.43;100495.28;5068185;28;20205;-71
2022/06/19 11:48:05;;;;;;;2.50;2.10;;;;;;;31.30;40.29;100497.31;5067551;28;20235;-70